Terminal Aerodrome Forecast
Issued by NWS North Platte, NE

Home | Current Version | Previous Version | Text Only | Print | Product List | Glossary On
Versions: 1 2 3 4 5 6 7 8 9 10 11 12 13
000
FTUS43 KLBF 270800 AAA
TAFVTN
TAF AMD
KVTN 270803Z 2708/2806 15007KT P6SM OVC007
     FM271400 13009KT 5SM RA OVC008
      TEMPO 2714/2718 VRB16G26KT 2SM +TSRA SCT008 BKN025CB
     FM271800 15009KT 3SM RA BKN008 OVC015=

USA.gov is the U.S. government's official web portal to all federal, state and local government web resources and services.